Latest Weather Observations for Hindmarsh Island

IDS60801

Issued at 2:31 pm CST Monday 15 July 2024 (issued every 10 minutes, with the page automatically refreshed every 10 minutes)

About weather observations | Map of weather stations | Latest weather observations for SA | Other Formats
Station Details ID: 023894 Name: HINDMARSH ISLAND AWS Lat: -35.52 Lon: 138.82 Height: 11.0 m
Data from the previous 72 hours. | See also: Recent months at Hindmarsh Island
Date/Time
CST
Temp
°C
App
Temp
°C
Dew
Point
°C
Rel
Hum
%
Delta-T
°C
Wind Press
QNH
hPa
Press
MSL
hPa
Rain since
9am
mm
Dir  Spd
km/h
Gust
km/h
Spd
kts
Gust
kts
15/02:00pm 12.2 4.4 6.7 69 2.6 SSW 37 48 20 26 1014.4 1014.4 1.6
15/01:30pm 12.5 4.9 5.9 64 3.1 SSW 35 43 19 23 1014.6 1014.6 1.6
15/01:00pm 12.6 4.7 6.2 65 3.0 SSW 37 44 20 24 1014.7 1014.7 1.6
15/12:30pm 11.7 3.1 6.4 70 2.5 SSW 41 48 22 26 1015.0 1015.0 1.6
15/12:00pm 12.1 3.9 6.6 69 2.6 SSW 39 46 21 25 1015.6 1015.6 1.6
15/11:30am 11.3 2.9 7.2 76 2.0 SSW 41 48 22 26 1015.7 1015.7 1.6
15/11:00am 11.3 3.7 7.4 77 1.9 SSW 37 46 20 25 1016.1 1016.1 1.6
15/10:30am 10.5 4.3 9.3 92 0.6 SSW 32 39 17 21 1016.5 1016.5 1.6
15/10:00am 10.2 4.4 9.3 94 0.4 S 30 41 16 22 1016.5 1016.5 1.2
15/09:30am 10.2 3.9 8.8 91 0.7 SW 32 43 17 23 1016.3 1016.3 0.6
15/09:00am 11.6 6.0 7.3 75 2.1 SSW 26 30 14 16 1015.9 1015.9 2.8
15/08:30am 10.9 7.4 8.8 87 1.0 SW 17 22 9 12 1015.8 1015.8 2.8
15/08:00am 10.3 5.8 8.6 89 0.8 SSW 22 28 12 15 1015.6 1015.6 2.8
15/07:30am 10.0 5.2 8.8 92 0.6 S 24 30 13 16 1015.5 1015.5 2.8
15/07:00am 10.3 3.6 7.5 83 1.3 SSW 32 37 17 20 1015.4 1015.4 2.6
15/06:30am 10.5 3.8 7.4 81 1.5 SSW 32 41 17 22 1015.3 1015.3 2.6
15/06:00am 10.4 5.3 7.8 84 1.3 SSW 24 28 13 15 1015.3 1015.3 2.6
15/05:30am 9.9 4.8 7.7 86 1.1 SSW 24 28 13 15 1015.2 1015.2 2.6
15/05:00am 10.3 4.5 8.1 86 1.1 S 28 33 15 18 1015.3 1015.3 2.6
15/04:30am 10.2 4.0 8.0 86 1.1 SW 30 39 16 21 1015.3 1015.3 2.6
15/04:00am 10.2 3.9 7.4 83 1.3 S 30 37 16 20 1015.2 1015.2 2.6
15/03:30am 10.5 3.9 5.9 73 2.1 SSW 30 35 16 19 1015.4 1015.4 2.6
15/03:00am 10.6 4.7 7.3 80 1.6 SSW 28 37 15 20 1015.4 1015.4 2.6
15/02:30am 10.8 4.0 6.9 77 1.8 SSW 32 41 17 22 1015.6 1015.6 2.6
15/02:00am 10.5 5.7 8.8 89 0.8 SSW 24 41 13 22 1015.8 1015.8 2.4
15/01:30am 10.2 6.8 9.0 92 0.6 SSW 17 20 9 11 1015.8 1015.8 2.4
15/01:00am 10.3 4.8 9.1 92 0.6 SSW 28 33 15 18 1016.0 1016.0 2.4
15/12:30am 10.0 6.9 8.9 93 0.5 WSW 15 22 8 12 1016.3 1016.3 2.4
15/12:00am 9.9 6.8 8.8 93 0.5 W 15 19 8 10 1016.6 1016.6 1.6
 
Date/Time
CST
Temp
°C
App
Temp
°C
Dew
Point
°C
Rel
Hum
%
Delta-T
°C
Wind Press
QNH
hPa
Press
MSL
hPa
Rain since
9am
mm
Dir  Spd
km/h
Gust
km/h
Spd
kts
Gust
kts
14/11:30pm 10.2 6.3 8.8 91 0.7 W 19 30 10 16 1016.9 1016.9 1.6
14/11:00pm 10.0 7.1 8.3 89 0.8 W 13 15 7 8 1017.1 1017.1 0.0
14/10:30pm 10.2 7.8 8.5 89 0.8 W 11 15 6 8 1017.3 1017.3 0.0
14/10:00pm 10.3 7.5 8.4 88 0.9 W 13 15 7 8 1017.5 1017.5 0.0
14/09:30pm 10.4 7.5 8.3 87 1.0 W 13 19 7 10 1017.7 1017.7 0.0
14/09:00pm 10.6 7.4 8.4 86 1.1 W 15 19 8 10 1017.8 1017.8 0.0
14/08:30pm 10.7 7.5 8.6 87 1.0 W 15 22 8 12 1018.0 1018.0 0.0
14/08:00pm 10.1 7.2 8.0 87 1.0 WNW 13 15 7 8 1018.1 1018.1 0.0
14/07:30pm 10.8 8.0 8.6 86 1.1 W 13 17 7 9 1018.1 1018.1 0.0
14/07:00pm 11.3 8.2 8.9 85 1.2 W 15 20 8 11 1018.1 1018.1 0.0
14/06:30pm 11.0 7.4 8.4 84 1.3 WSW 17 20 9 11 1018.1 1018.1 0.0
14/06:00pm 11.2 7.7 8.8 85 1.2 WSW 17 24 9 13 1017.8 1017.8 0.0
14/05:30pm 11.7 8.2 8.6 81 1.5 SW 17 20 9 11 1017.7 1017.7 0.0
14/05:00pm 11.9 8.3 8.4 79 1.7 SW 17 20 9 11 1017.6 1017.6 0.0
14/04:30pm 12.9 8.9 8.4 74 2.2 SW 19 24 10 13 1017.5 1017.5 0.0
14/04:00pm 13.1 8.9 7.3 68 2.8 SW 19 20 10 11 1017.5 1017.5 0.0
14/03:30pm 13.8 10.1 8.0 68 2.9 SW 17 20 9 11 1017.6 1017.6 0.0
14/03:00pm 13.7 9.6 7.9 68 2.9 SW 19 20 10 11 1017.5 1017.5 0.0
14/02:30pm 13.9 9.6 7.9 67 3.0 SW 20 24 11 13 1017.5 1017.5 0.0
14/02:00pm 13.9 9.8 7.9 67 3.0 SW 19 22 10 12 1017.7 1017.7 0.0
14/01:30pm 14.0 10.0 8.2 68 2.9 SSW 19 20 10 11 1017.7 1017.7 0.0
14/01:00pm 14.0 10.1 8.6 70 2.7 SSW 19 24 10 13 1018.0 1018.0 0.0
14/12:30pm 14.1 10.3 8.9 71 2.6 SSW 19 24 10 13 1018.5 1018.5 0.0
14/12:00pm 13.7 10.6 9.0 73 2.4 SSW 15 19 8 10 1018.9 1018.9 0.0
14/11:30am 13.6 10.1 8.9 73 2.4 SSW 17 20 9 11 1019.5 1019.5 0.0
14/11:00am 13.3 9.9 9.2 76 2.1 SSW 17 19 9 10 1019.9 1019.9 0.0
14/10:30am 13.0 9.7 9.4 79 1.8 SSW 17 20 9 11 1020.1 1020.1 0.0
14/10:00am 12.3 9.8 9.7 84 1.3 WSW 13 15 7 8 1020.0 1020.0 0.0
14/09:30am 12.5 10.5 10.2 86 1.2 WSW 11 17 6 9 1019.9 1019.9 0.0
14/09:00am 11.1 8.5 9.5 90 0.8 W 13 17 7 9 1019.7 1019.7 1.6
14/08:30am 9.6 7.2 8.7 94 0.4 WNW 11 13 6 7 1019.5 1019.5 1.6
14/08:00am 8.2 5.5 7.3 94 0.4 WNW 11 13 6 7 1019.4 1019.4 1.6
14/07:30am 8.1 5.3 7.0 93 0.5 WNW 11 13 6 7 1019.3 1019.3 1.6
14/07:00am 8.5 5.8 7.4 93 0.5 WNW 11 13 6 7 1019.1 1019.1 1.6
14/06:30am 8.6 5.6 7.7 94 0.4 WNW 13 15 7 8 1019.0 1019.0 1.6
14/06:00am 8.8 6.2 7.7 93 0.5 W 11 15 6 8 1018.9 1018.9 1.6
14/05:30am 8.7 6.1 7.6 93 0.5 W 11 15 6 8 1018.7 1018.7 1.6
14/05:00am 8.8 7.0 7.9 94 0.4 W 7 11 4 6 1018.6 1018.6 1.6
14/04:30am 8.8 6.6 7.9 94 0.4 W 9 13 5 7 1018.5 1018.5 1.6
14/04:00am 8.7 6.1 7.8 94 0.4 WNW 11 13 6 7 1018.6 1018.6 1.6
14/03:30am 9.1 6.6 8.2 94 0.4 WNW 11 13 6 7 1018.7 1018.7 1.6
14/03:00am 9.2 6.7 8.3 94 0.4 W 11 11 6 6 1018.7 1018.7 1.6
14/02:30am 9.2 6.7 8.3 94 0.4 WNW 11 11 6 6 1018.8 1018.8 1.6
14/02:00am 9.4 7.0 8.5 94 0.4 WNW 11 13 6 7 1019.0 1019.0 1.6
14/01:30am 9.5 7.4 8.4 93 0.5 WNW 9 11 5 6 1018.7 1018.7 1.6
14/01:00am 10.1 7.4 9.0 93 0.5 W 13 15 7 8 1018.8 1018.8 1.6
14/12:30am 10.7 8.6 9.6 93 0.6 W 11 17 6 9 1018.9 1018.9 1.6
14/12:00am 11.3 9.6 10.0 92 0.7 WSW 9 19 5 10 1019.2 1019.2 1.4
 
Date/Time
CST
Temp
°C
App
Temp
°C
Dew
Point
°C
Rel
Hum
%
Delta-T
°C
Wind Press
QNH
hPa
Press
MSL
hPa
Rain since
9am
mm
Dir  Spd
km/h
Gust
km/h
Spd
kts
Gust
kts
13/11:30pm 11.0 9.3 9.8 92 0.6 SSW 9 13 5 7 1019.4 1019.4 1.2
13/11:00pm 10.9 9.2 9.7 92 0.6 W 9 13 5 7 1019.4 1019.4 1.2
13/10:30pm 10.9 8.8 9.7 92 0.6 W 11 13 6 7 1019.4 1019.4 1.2
13/10:00pm 10.8 8.7 9.6 92 0.6 W 11 13 6 7 1019.4 1019.4 1.2
13/09:30pm 11.1 8.7 10.0 93 0.6 WSW 13 15 7 8 1019.4 1019.4 1.2
13/09:00pm 11.7 9.8 10.6 93 0.6 W 11 15 6 8 1019.6 1019.6 0.4
13/08:30pm 11.8 10.7 10.7 93 0.6 W 7 11 4 6 1019.3 1019.3 0.2
13/08:00pm 11.8 10.7 10.7 93 0.6 WSW 7 9 4 5 1019.1 1019.1 0.2
13/07:30pm 11.8 9.9 10.5 92 0.7 W 11 13 6 7 1019.0 1019.0 0.2
13/07:00pm 11.8 10.3 10.4 91 0.7 WSW 9 13 5 7 1018.9 1018.9 0.0
13/06:30pm 11.9 10.6 10.0 88 1.0 W 7 11 4 6 1018.8 1018.8 0.0
13/06:00pm 12.1 10.8 9.8 86 1.2 NW 7 9 4 5 1018.5 1018.5 0.0
13/05:30pm 12.3 9.9 9.9 85 1.2 WNW 13 19 7 10 1018.4 1018.4 0.0
13/05:00pm 13.7 10.6 9.0 73 2.4 W 15 20 8 11 1018.3 1018.3 0.0
13/04:30pm 14.2 11.0 8.6 69 2.8 W 15 20 8 11 1018.1 1018.1 0.0
13/04:00pm 14.9 12.2 8.8 67 3.1 WSW 13 19 7 10 1018.1 1018.1 0.0
13/03:30pm 15.7 12.9 8.7 63 3.6 W 13 20 7 11 1018.0 1018.0 0.0
13/03:00pm 15.9 13.2 8.9 63 3.6 WSW 13 20 7 11 1017.9 1017.9 0.0
13/02:30pm 15.7 11.7 8.2 61 3.8 W 19 28 10 15 1017.8 1017.8 0.0
13/02:00pm 14.3 12.5 9.5 73 2.5 WSW 9 13 5 7 1018.0 1018.0 0.0
13/01:30pm 13.7 10.6 8.7 72 2.5 W 15 20 8 11 1018.2 1018.2 0.0
13/01:00pm 15.0 11.4 8.3 64 3.4 W 17 22 9 12 1018.4 1018.4 0.0
13/12:30pm 14.0 10.9 9.0 72 2.5 WSW 15 22 8 12 1018.8 1018.8 0.0
13/12:00pm 14.0 11.2 8.6 70 2.7 WSW 13 19 7 10 1019.3 1019.3 0.0
13/11:30am 14.3 11.2 8.9 70 2.7 W 15 20 8 11 1019.7 1019.7 0.0
13/11:00am 14.7 11.2 8.9 68 2.9 W 17 24 9 13 1020.1 1020.1 0.0
13/10:30am 14.5 10.6 8.5 67 3.0 W 19 24 10 13 1020.3 1020.3 0.0
13/10:00am 13.9 11.0 8.3 69 2.8 WNW 13 19 7 10 1020.2 1020.2 0.0
13/09:30am 12.9 11.0 9.2 78 1.9 NW 9 13 5 7 1020.1 1020.1 0.0
13/09:00am 11.2 9.1 8.2 82 1.5 WNW 9 11 5 6 1019.9 1019.9 0.4
13/08:30am 9.9 7.2 7.3 84 1.2 NW 11 13 6 7 1019.6 1019.6 0.4
13/08:00am 8.9 6.0 6.7 86 1.0 NW 11 13 6 7 1019.5 1019.5 0.4
13/07:30am 8.9 5.7 7.0 88 0.9 WNW 13 15 7 8 1019.3 1019.3 0.4
13/07:00am 8.8 5.6 6.9 88 0.9 WNW 13 15 7 8 1019.0 1019.0 0.4
13/06:30am 9.2 6.5 7.2 87 0.9 WNW 11 13 6 7 1018.8 1018.8 0.4
13/06:00am 9.3 6.7 7.6 89 0.8 WNW 11 13 6 7 1018.6 1018.6 0.4
13/05:30am 9.6 7.1 8.0 90 0.8 NW 11 11 6 6 1018.3 1018.3 0.4
13/05:00am 10.0 7.5 8.3 89 0.8 NW 11 13 6 7 1018.2 1018.2 0.4
13/04:30am 10.8 8.5 9.1 89 0.8 WNW 11 13 6 7 1018.2 1018.2 0.4
13/04:00am 10.9 8.4 9.7 92 0.6 W 13 19 7 10 1018.1 1018.1 0.4
13/03:30am 10.8 8.7 9.9 94 0.5 W 11 13 6 7 1018.4 1018.4 0.4
13/03:00am 10.5 9.1 9.6 94 0.5 WNW 7 9 4 5 1018.3 1018.3 0.4
13/02:30am 11.0 9.4 10.2 95 0.4 W 9 13 5 7 1018.3 1018.3 0.2
13/02:00am 10.7 8.7 10.1 96 0.3 WNW 11 15 6 8 1018.3 1018.3 0.2
13/01:30am 10.8 9.5 10.0 95 0.4 W 7 9 4 5 1018.1 1018.1 0.2
13/01:00am 11.3 9.8 10.5 95 0.4 WSW 9 11 5 6 1018.1 1018.1 0.2
13/12:30am 11.6 9.0 10.8 95 0.4 SW 15 20 8 11 1018.4 1018.4 0.2
13/12:00am 11.6 8.6 10.8 95 0.4 SW 17 20 9 11 1018.5 1018.5 0.2
 
Date/Time
CST
Temp
°C
App
Temp
°C
Dew
Point
°C
Rel
Hum
%
Delta-T
°C
Wind Press
QNH
hPa
Press
MSL
hPa
Rain since
9am
mm
Dir  Spd
km/h
Gust
km/h
Spd
kts
Gust
kts
12/11:30pm 11.9 8.0 10.8 93 0.6 SW 22 32 12 17 1018.7 1018.7 0.2
12/11:00pm 10.4 7.8 9.2 92 0.6 WNW 13 15 7 8 1018.6 1018.6 0.2
12/10:30pm 10.1 7.8 8.9 92 0.6 NW 11 11 6 6 1018.6 1018.6 0.2
12/10:00pm 10.3 8.0 9.1 92 0.6 NNW 11 13 6 7 1018.3 1018.3 0.2
12/09:30pm 11.1 9.4 9.7 91 0.7 W 9 11 5 6 1018.2 1018.2 0.2
12/09:00pm 11.5 9.9 10.1 91 0.7 WSW 9 11 5 6 1018.3 1018.3 0.2
12/08:30pm 11.9 9.6 10.3 90 0.8 WSW 13 17 7 9 1018.1 1018.1 0.2
12/08:00pm 11.0 9.0 8.6 85 1.2 NW 9 9 5 5 1017.8 1017.8 0.0
12/07:30pm 11.0 8.6 8.6 85 1.2 WNW 11 13 6 7 1017.5 1017.5 0.0
12/07:00pm 11.4 9.0 8.8 84 1.3 WNW 11 15 6 8 1017.2 1017.2 0.0
12/06:30pm 11.6 9.3 9.0 84 1.3 NW 11 13 6 7 1017.1 1017.1 0.0
12/06:00pm 12.1 9.6 9.7 85 1.2 WNW 13 17 7 9 1016.9 1016.9 0.0
12/05:30pm 12.1 10.1 10.3 89 0.9 WSW 11 15 6 8 1016.7 1016.7 0.0
12/05:00pm 13.2 9.8 10.7 85 1.3 SW 19 30 10 16 1016.6 1016.6 0.0
12/04:30pm 14.9 11.2 10.1 73 2.5 W 20 28 11 15 1016.5 1016.5 0.0
12/04:00pm 15.2 11.0 9.8 70 2.8 WNW 22 33 12 18 1016.4 1016.4 0.0
12/03:30pm 15.3 11.6 10.1 71 2.7 W 20 26 11 14 1016.4 1016.4 0.0
12/03:00pm 15.9 10.5 9.6 66 3.3 W 28 39 15 21 1016.2 1016.2 0.0

Other formats

Comma delimited format used in spreadsheet applications
http://www.bom.gov.au/fwo/IDS60801/IDS60801.94677.axf

JavaScript Object Notation format (JSON) in row-major order
http://www.bom.gov.au/fwo/IDS60801/IDS60801.94677.json

Data quality

Most of these data are generated automatically and are frequently updated. Quality checks on data are not normally performed. It is possible for incorrect values to appear. Refer to information at About Latest Weather Observations and please check the disclaimer before using these data.